createdAt,value
2018-05-27T00:00:40.082Z,0.00
2018-05-27T00:01:40.079Z,0.00
2018-05-27T00:02:40.083Z,0.00
2018-05-27T00:03:40.075Z,0.00
2018-05-27T00:04:40.072Z,0.00
2018-05-27T00:05:40.069Z,0.00
2018-05-27T00:06:40.091Z,0.00
2018-05-27T00:07:40.059Z,0.00
2018-05-27T00:08:40.053Z,0.00
2018-05-27T00:09:40.086Z,0.00
2018-05-27T00:10:40.050Z,0.00
2018-05-27T00:11:40.046Z,0.00
2018-05-27T00:12:40.044Z,0.00
2018-05-27T00:13:40.036Z,0.00
2018-05-27T00:14:40.031Z,0.00
2018-05-27T00:15:40.030Z,0.00
2018-05-27T00:16:40.024Z,0.00
2018-05-27T00:17:40.025Z,0.00
2018-05-27T00:18:40.023Z,0.00
2018-05-27T00:19:40.019Z,0.00
2018-05-27T00:20:40.011Z,0.00
2018-05-27T00:21:40.012Z,0.00
2018-05-27T00:22:40.013Z,0.00
2018-05-27T00:23:39.999Z,0.00
2018-05-27T00:24:39.999Z,0.00
2018-05-27T00:25:39.996Z,0.00
2018-05-27T00:26:39.995Z,0.00
2018-05-27T00:27:39.985Z,0.00
2018-05-27T00:28:39.981Z,0.00
2018-05-27T00:29:39.986Z,0.00
2018-05-27T00:30:39.975Z,0.00
2018-05-27T00:31:39.974Z,0.00
2018-05-27T00:32:39.975Z,0.00
2018-05-27T00:33:39.968Z,0.00
2018-05-27T00:34:39.961Z,0.00
2018-05-27T00:35:39.957Z,0.00
2018-05-27T00:36:39.953Z,0.00
2018-05-27T00:37:39.951Z,0.00
2018-05-27T00:38:39.948Z,0.00
2018-05-27T00:39:39.945Z,0.00
2018-05-27T00:40:39.944Z,0.00
2018-05-27T00:41:39.943Z,0.00
2018-05-27T00:42:39.933Z,0.00
2018-05-27T00:43:39.928Z,0.00
2018-05-27T00:44:39.925Z,0.00
2018-05-27T00:45:39.922Z,0.00
2018-05-27T00:46:39.921Z,0.00
2018-05-27T00:47:39.908Z,0.00
2018-05-27T00:48:39.908Z,0.00
2018-05-27T00:49:39.906Z,0.00
2018-05-27T00:50:39.901Z,0.00
2018-05-27T00:51:39.898Z,0.00
2018-05-27T00:52:39.894Z,0.00
2018-05-27T00:53:39.889Z,0.00
2018-05-27T00:54:39.882Z,0.00
2018-05-27T00:55:39.880Z,0.00
2018-05-27T00:56:39.878Z,0.00
2018-05-27T00:57:39.876Z,0.00
2018-05-27T00:58:39.872Z,0.00
2018-05-27T00:59:39.871Z,0.00
2018-05-27T01:00:39.869Z,0.00
2018-05-27T01:01:39.864Z,0.00
2018-05-27T01:02:39.853Z,0.00
2018-05-27T01:03:39.849Z,0.00
2018-05-27T01:04:39.845Z,0.00
2018-05-27T01:05:39.854Z,0.00
2018-05-27T01:06:39.846Z,0.00
2018-05-27T01:07:39.841Z,0.00
2018-05-27T01:08:39.835Z,0.00
2018-05-27T01:09:39.832Z,0.00
2018-05-27T01:10:39.837Z,0.00
2018-05-27T01:11:39.822Z,0.00
2018-05-27T01:12:39.823Z,0.00
2018-05-27T01:13:39.809Z,0.00
2018-05-27T01:14:39.810Z,0.00
2018-05-27T01:15:39.809Z,0.00
2018-05-27T01:16:39.825Z,0.00
2018-05-27T01:17:39.795Z,0.00
2018-05-27T01:18:39.897Z,0.00
2018-05-27T01:19:39.797Z,0.00
2018-05-27T01:20:39.787Z,0.00
2018-05-27T01:21:39.783Z,0.00
2018-05-27T01:22:39.778Z,0.00
2018-05-27T01:23:39.776Z,0.00
2018-05-27T01:24:39.767Z,0.00
2018-05-27T01:25:39.766Z,0.00
2018-05-27T01:26:39.765Z,0.00
2018-05-27T01:27:39.760Z,0.00
2018-05-27T01:28:39.755Z,0.00
2018-05-27T01:29:39.754Z,0.00
2018-05-27T01:30:39.745Z,0.00
2018-05-27T01:31:39.744Z,0.00
2018-05-27T01:32:39.736Z,0.00
2018-05-27T01:33:39.740Z,0.00
2018-05-27T01:34:39.733Z,0.00
2018-05-27T01:35:39.747Z,0.00
2018-05-27T01:36:39.724Z,0.00
2018-05-27T01:37:39.717Z,0.00
2018-05-27T01:38:39.713Z,0.00
2018-05-27T01:39:39.709Z,0.00
2018-05-27T01:40:39.711Z,0.00
2018-05-27T01:41:39.698Z,0.00
2018-05-27T01:42:39.699Z,0.00
2018-05-27T01:43:39.697Z,0.00
2018-05-27T01:44:39.718Z,0.00
2018-05-27T01:45:39.688Z,0.00
2018-05-27T01:46:39.683Z,0.00
2018-05-27T01:47:39.686Z,0.00
2018-05-27T01:48:39.675Z,0.00
2018-05-27T01:49:39.671Z,0.00
2018-05-27T01:50:39.670Z,0.00
2018-05-27T01:51:39.660Z,0.00
2018-05-27T01:52:39.655Z,0.00
2018-05-27T01:53:39.650Z,0.00
2018-05-27T01:54:39.651Z,0.00
2018-05-27T01:55:39.645Z,0.00
2018-05-27T01:56:39.646Z,0.00
2018-05-27T01:57:39.641Z,0.00
2018-05-27T01:58:39.631Z,0.00
2018-05-27T01:59:39.631Z,0.00
2018-05-27T02:00:39.622Z,0.00
2018-05-27T02:01:39.624Z,0.00
2018-05-27T02:02:39.618Z,0.00
2018-05-27T02:03:39.612Z,0.00
2018-05-27T02:04:39.610Z,0.00
2018-05-27T02:05:39.605Z,0.00
2018-05-27T02:06:39.601Z,0.00
2018-05-27T02:07:39.592Z,0.00
2018-05-27T02:08:39.593Z,0.00
2018-05-27T02:09:39.585Z,0.00
2018-05-27T02:10:39.581Z,0.00
2018-05-27T02:11:39.579Z,0.00
2018-05-27T02:12:39.588Z,0.00
2018-05-27T02:13:39.573Z,0.00
2018-05-27T02:14:39.566Z,0.00
2018-05-27T02:15:39.575Z,0.00
2018-05-27T02:16:39.570Z,0.00
2018-05-27T02:17:39.557Z,0.00
2018-05-27T02:18:39.553Z,0.00
2018-05-27T02:19:39.547Z,0.00
2018-05-27T02:20:39.543Z,0.00
2018-05-27T02:21:39.538Z,0.00
2018-05-27T02:22:39.532Z,0.00
2018-05-27T02:23:39.529Z,0.00
2018-05-27T02:24:39.527Z,0.00
2018-05-27T02:25:39.520Z,0.00
2018-05-27T02:26:39.518Z,0.00
2018-05-27T02:27:39.508Z,0.00
2018-05-27T02:28:39.504Z,0.00
2018-05-27T02:29:39.505Z,0.00
2018-05-27T02:30:39.499Z,0.00
2018-05-27T02:31:39.503Z,0.00
2018-05-27T02:32:39.488Z,0.00
2018-05-27T02:33:39.488Z,0.00
2018-05-27T02:34:39.484Z,0.00
2018-05-27T02:35:39.478Z,0.00
2018-05-27T02:36:39.482Z,0.00
2018-05-27T02:37:39.470Z,0.00
2018-05-27T02:38:39.466Z,0.00
2018-05-27T02:39:39.480Z,0.00
2018-05-27T02:40:39.465Z,0.00
2018-05-27T02:41:39.464Z,0.00
2018-05-27T02:42:39.454Z,0.00
2018-05-27T02:43:39.445Z,0.00
2018-05-27T02:44:39.440Z,0.00
2018-05-27T02:45:39.439Z,0.00
2018-05-27T02:46:39.427Z,0.00
2018-05-27T02:47:39.425Z,0.00
2018-05-27T02:48:39.418Z,0.00
2018-05-27T02:49:39.459Z,0.00
2018-05-27T02:50:39.414Z,0.00
2018-05-27T02:51:39.409Z,0.00
2018-05-27T02:52:39.407Z,0.00
2018-05-27T02:53:39.401Z,0.00
2018-05-27T02:54:39.401Z,0.00
2018-05-27T02:55:39.389Z,0.00
2018-05-27T02:56:39.393Z,0.00
2018-05-27T02:57:39.388Z,0.00
2018-05-27T02:58:39.382Z,0.00
2018-05-27T02:59:39.416Z,0.00
2018-05-27T03:00:39.373Z,0.00
2018-05-27T03:01:39.366Z,0.00
2018-05-27T03:02:39.360Z,0.00
2018-05-27T03:03:39.360Z,0.00
2018-05-27T03:04:39.354Z,0.00
2018-05-27T03:05:39.352Z,0.00
2018-05-27T03:06:39.344Z,0.00
2018-05-27T03:07:39.339Z,5.63
2018-05-27T03:08:39.380Z,5.63
2018-05-27T03:09:39.330Z,5.63
2018-05-27T03:10:39.333Z,5.63
2018-05-27T03:11:39.326Z,5.63
2018-05-27T03:12:39.321Z,5.63
2018-05-27T03:13:39.313Z,5.63
2018-05-27T03:14:39.309Z,5.63
2018-05-27T03:15:39.317Z,11.25
2018-05-27T03:16:39.307Z,11.25
2018-05-27T03:17:39.295Z,11.25
2018-05-27T03:18:39.318Z,11.25
2018-05-27T03:19:39.291Z,11.25
2018-05-27T03:20:39.285Z,16.88
2018-05-27T03:21:39.285Z,16.88
2018-05-27T03:22:39.273Z,16.88
2018-05-27T03:23:39.269Z,16.88
2018-05-27T03:24:39.275Z,22.50
2018-05-27T03:25:39.277Z,22.50
2018-05-27T03:26:39.259Z,22.50
2018-05-27T03:27:39.255Z,22.50
2018-05-27T03:28:39.252Z,28.13
2018-05-27T03:29:39.245Z,28.13
2018-05-27T03:30:39.244Z,28.13
2018-05-27T03:31:39.234Z,28.13
2018-05-27T03:32:39.230Z,33.75
2018-05-27T03:33:39.230Z,33.75
2018-05-27T03:34:39.222Z,33.75
2018-05-27T03:35:39.220Z,39.38
2018-05-27T03:36:39.215Z,39.38
2018-05-27T03:37:39.213Z,39.38
2018-05-27T03:38:39.203Z,45.00
2018-05-27T03:39:39.202Z,45.00
2018-05-27T03:40:39.199Z,45.00
2018-05-27T03:41:39.191Z,50.63
2018-05-27T03:42:39.189Z,50.63
2018-05-27T03:43:39.190Z,56.25
2018-05-27T03:44:39.187Z,56.25
2018-05-27T03:45:39.174Z,61.88
2018-05-27T03:46:39.173Z,67.50
2018-05-27T03:47:39.168Z,67.50
2018-05-27T03:48:39.164Z,73.13
2018-05-27T03:49:39.170Z,78.75
2018-05-27T03:50:39.146Z,84.38
2018-05-27T03:51:39.144Z,84.38
2018-05-27T03:52:40.297Z,90.00
2018-05-27T03:53:39.149Z,95.63
2018-05-27T03:54:39.135Z,101.25
2018-05-27T03:55:39.129Z,101.25
2018-05-27T03:56:39.129Z,101.25
2018-05-27T03:57:39.119Z,106.88
2018-05-27T03:58:39.115Z,112.50
2018-05-27T03:59:39.108Z,118.13
2018-05-27T04:00:39.105Z,118.13
2018-05-27T04:01:39.103Z,123.75
2018-05-27T04:02:39.095Z,129.38
2018-05-27T04:03:39.093Z,135.00
2018-05-27T04:04:39.087Z,135.00
2018-05-27T04:05:39.080Z,140.63
2018-05-27T04:06:39.087Z,140.63
2018-05-27T04:07:39.079Z,140.63
2018-05-27T04:08:39.068Z,140.63
2018-05-27T04:09:39.066Z,140.63
2018-05-27T04:10:39.058Z,146.25
2018-05-27T04:11:39.055Z,146.25
2018-05-27T04:12:39.051Z,146.25
2018-05-27T04:13:39.045Z,151.88
2018-05-27T04:14:39.044Z,157.50
2018-05-27T04:15:39.039Z,157.50
2018-05-27T04:16:39.034Z,157.50
2018-05-27T04:17:39.028Z,163.13
2018-05-27T04:18:39.024Z,163.13
2018-05-27T04:19:39.041Z,168.75
2018-05-27T04:20:39.016Z,168.75
2018-05-27T04:21:39.009Z,174.38
2018-05-27T04:22:39.011Z,174.38
2018-05-27T04:23:39.001Z,180.00
2018-05-27T04:24:38.999Z,185.63
2018-05-27T04:25:38.993Z,185.63
2018-05-27T04:26:38.987Z,185.63
2018-05-27T04:27:38.988Z,191.25
2018-05-27T04:28:39.019Z,191.25
2018-05-27T04:29:38.972Z,191.25
2018-05-27T04:30:38.970Z,191.25
2018-05-27T04:31:38.972Z,196.88
2018-05-27T04:32:38.958Z,202.50
2018-05-27T04:33:38.958Z,208.13
2018-05-27T04:34:38.952Z,208.13
2018-05-27T04:35:38.948Z,213.75
2018-05-27T04:36:38.942Z,219.38
2018-05-27T04:37:38.938Z,236.25
2018-05-27T04:38:38.936Z,241.88
2018-05-27T04:39:38.927Z,247.50
2018-05-27T04:40:38.925Z,253.13
2018-05-27T04:41:38.918Z,258.75
2018-05-27T04:42:38.916Z,264.38
2018-05-27T04:43:38.915Z,281.25
2018-05-27T04:44:38.904Z,281.25
2018-05-27T04:45:38.900Z,286.88
2018-05-27T04:46:38.895Z,298.13
2018-05-27T04:47:38.888Z,303.75
2018-05-27T04:48:38.884Z,309.38
2018-05-27T04:49:38.882Z,315.00
2018-05-27T04:50:38.878Z,315.00
2018-05-27T04:51:38.879Z,326.25
2018-05-27T04:52:38.866Z,331.88
2018-05-27T04:53:38.860Z,343.13
2018-05-27T04:54:38.858Z,360.00
2018-05-27T04:55:38.854Z,399.38
2018-05-27T04:56:38.846Z,500.63
2018-05-27T04:57:38.845Z,551.25
2018-05-27T04:58:38.841Z,483.75
2018-05-27T04:59:38.838Z,393.75
2018-05-27T05:00:38.833Z,388.13
2018-05-27T05:01:38.828Z,393.75
2018-05-27T05:02:38.822Z,399.38
2018-05-27T05:03:38.819Z,405.00
2018-05-27T05:04:38.816Z,410.63
2018-05-27T05:05:38.810Z,410.63
2018-05-27T05:06:38.803Z,416.25
2018-05-27T05:07:38.797Z,427.50
2018-05-27T05:08:38.799Z,483.75
2018-05-27T05:09:38.797Z,540.00
2018-05-27T05:10:38.785Z,607.50
2018-05-27T05:11:38.788Z,776.25
2018-05-27T05:12:38.781Z,888.75
2018-05-27T05:13:38.777Z,877.50
2018-05-27T05:14:38.769Z,849.38
2018-05-27T05:15:38.764Z,905.63
2018-05-27T05:16:38.765Z,928.13
2018-05-27T05:17:38.756Z,961.88
2018-05-27T05:18:38.755Z,1012.50
2018-05-27T05:19:38.755Z,1051.88
2018-05-27T05:20:38.758Z,1074.38
2018-05-27T05:21:38.746Z,1080.00
2018-05-27T05:22:38.739Z,1068.75
2018-05-27T05:23:38.743Z,1051.88
2018-05-27T05:24:38.732Z,1046.25
2018-05-27T05:25:38.733Z,1068.75
2018-05-27T05:26:38.729Z,1164.38
2018-05-27T05:27:38.737Z,1248.75
2018-05-27T05:28:38.722Z,1271.25
2018-05-27T05:29:38.717Z,1327.50
2018-05-27T05:30:38.715Z,1327.50
2018-05-27T05:31:38.720Z,1378.13
2018-05-27T05:32:38.713Z,1513.13
2018-05-27T05:33:38.715Z,1535.63
2018-05-27T05:34:38.708Z,1496.25
2018-05-27T05:35:38.703Z,1496.25
2018-05-27T05:36:38.701Z,1507.50
2018-05-27T05:37:38.695Z,1591.88
2018-05-27T05:38:38.693Z,1648.13
2018-05-27T05:39:38.699Z,1653.75
2018-05-27T05:40:38.695Z,1681.88
2018-05-27T05:41:38.688Z,1631.25
2018-05-27T05:42:38.687Z,1681.88
2018-05-27T05:43:38.727Z,1845.00
2018-05-27T05:44:38.680Z,1918.13
2018-05-27T05:45:38.693Z,1884.38
2018-05-27T05:46:38.681Z,1766.25
2018-05-27T05:47:38.720Z,1760.63
2018-05-27T05:48:38.678Z,1918.13
2018-05-27T05:49:38.678Z,2008.13
2018-05-27T05:50:38.672Z,2064.38
2018-05-27T05:51:38.673Z,1968.75
2018-05-27T05:52:38.671Z,2053.13
2018-05-27T05:53:38.668Z,2115.00
2018-05-27T05:54:38.671Z,2070.00
2018-05-27T05:55:38.669Z,2013.75
2018-05-27T05:56:38.669Z,2064.38
2018-05-27T05:57:38.673Z,2120.63
2018-05-27T05:58:38.662Z,2176.88
2018-05-27T05:59:38.665Z,2250.00
2018-05-27T06:00:38.667Z,2435.63
2018-05-27T06:01:38.677Z,2463.75
2018-05-27T06:02:38.666Z,2413.13
2018-05-27T06:03:38.665Z,2469.38
2018-05-27T06:04:38.671Z,2368.13
2018-05-27T06:05:38.669Z,2351.25
2018-05-27T06:06:38.661Z,2497.50
2018-05-27T06:07:38.663Z,2548.13
2018-05-27T06:08:38.667Z,2458.13
2018-05-27T06:09:38.673Z,1715.63
2018-05-27T06:10:38.660Z,2199.38
2018-05-27T06:11:38.663Z,1873.13
2018-05-27T06:12:38.674Z,1091.25
2018-05-27T06:13:38.746Z,1006.88
2018-05-27T06:14:38.659Z,2385.00
2018-05-27T06:15:38.664Z,2424.38
2018-05-27T06:16:38.665Z,2430.00
2018-05-27T06:17:38.665Z,2531.25
2018-05-27T06:18:38.662Z,2604.38
2018-05-27T06:19:38.691Z,2598.75
2018-05-27T06:20:38.662Z,2036.25
2018-05-27T06:21:38.663Z,1462.50
2018-05-27T06:22:38.665Z,1372.50
2018-05-27T06:23:38.667Z,1350.00
2018-05-27T06:24:38.668Z,1327.50
2018-05-27T06:25:38.688Z,1321.88
2018-05-27T06:26:38.675Z,1321.88
2018-05-27T06:27:38.670Z,1305.00
2018-05-27T06:28:38.667Z,1316.25
2018-05-27T06:29:38.670Z,1327.50
2018-05-27T06:30:38.672Z,1344.38
2018-05-27T06:31:38.679Z,1366.88
2018-05-27T06:32:38.672Z,1434.38
2018-05-27T06:33:38.674Z,1698.75
2018-05-27T06:34:38.672Z,2559.38
2018-05-27T06:35:38.677Z,3476.25
2018-05-27T06:36:38.679Z,3667.50
2018-05-27T06:37:38.680Z,3571.88
2018-05-27T06:38:38.685Z,3549.38
2018-05-27T06:39:38.683Z,3352.50
2018-05-27T06:40:38.683Z,3436.88
2018-05-27T06:41:38.683Z,3622.50
2018-05-27T06:42:38.686Z,3661.88
2018-05-27T06:43:38.691Z,3650.63
2018-05-27T06:44:38.691Z,3673.13
2018-05-27T06:45:38.691Z,3678.75
2018-05-27T06:46:38.698Z,3729.38
2018-05-27T06:47:38.695Z,3735.00
2018-05-27T06:48:38.698Z,3650.63
2018-05-27T06:49:38.703Z,3729.38
2018-05-27T06:50:38.704Z,3898.13
2018-05-27T06:51:38.713Z,3881.25
2018-05-27T06:52:38.712Z,3954.38
2018-05-27T06:53:38.713Z,3948.75
2018-05-27T06:54:38.717Z,3808.13
2018-05-27T06:55:38.720Z,3751.88
2018-05-27T06:56:38.719Z,3684.38
2018-05-27T06:57:38.723Z,3830.63
2018-05-27T06:58:38.733Z,3982.50
2018-05-27T06:59:38.735Z,4061.25
2018-05-27T07:00:38.738Z,4078.13
2018-05-27T07:01:38.735Z,4156.88
2018-05-27T07:02:38.743Z,4280.63
2018-05-27T07:03:38.743Z,4280.63
2018-05-27T07:04:38.779Z,4269.38
2018-05-27T07:05:38.758Z,4331.25
2018-05-27T07:06:38.756Z,4533.75
2018-05-27T07:07:38.760Z,4567.50
2018-05-27T07:08:38.761Z,4623.75
2018-05-27T07:09:38.770Z,4606.88
2018-05-27T07:10:38.777Z,4533.75
2018-05-27T07:11:38.820Z,4370.63
2018-05-27T07:12:38.784Z,4365.00
2018-05-27T07:13:38.788Z,4471.88
2018-05-27T07:14:38.790Z,4578.75
2018-05-27T07:15:38.791Z,4798.13
2018-05-27T07:16:38.815Z,4820.63
2018-05-27T07:17:38.802Z,4696.88
2018-05-27T07:18:38.808Z,4494.38
2018-05-27T07:19:38.818Z,4657.50
2018-05-27T07:20:38.819Z,4578.75
2018-05-27T07:21:38.826Z,4522.50
2018-05-27T07:22:38.824Z,4545.00
2018-05-27T07:23:38.832Z,4477.50
2018-05-27T07:24:38.837Z,4505.63
2018-05-27T07:25:38.842Z,4708.13
2018-05-27T07:26:38.905Z,4966.88
2018-05-27T07:27:38.855Z,4955.63
2018-05-27T07:28:38.919Z,4815.00
2018-05-27T07:29:38.869Z,5011.88
2018-05-27T07:30:38.876Z,5377.50
2018-05-27T07:31:38.872Z,5456.25
2018-05-27T07:32:38.878Z,5405.63
2018-05-27T07:33:38.889Z,5422.50
2018-05-27T07:34:38.962Z,5394.38
2018-05-27T07:35:38.894Z,5276.25
2018-05-27T07:36:38.901Z,5411.25
2018-05-27T07:37:38.906Z,5664.38
2018-05-27T07:38:38.915Z,5636.25
2018-05-27T07:39:38.920Z,5518.13
2018-05-27T07:40:38.932Z,5445.00
2018-05-27T07:41:38.934Z,5338.13
2018-05-27T07:42:38.942Z,5270.63
2018-05-27T07:43:38.946Z,5360.63
2018-05-27T07:44:38.952Z,5248.13
2018-05-27T07:45:38.959Z,5113.13
2018-05-27T07:46:38.990Z,5045.63
2018-05-27T07:47:38.973Z,5135.63
2018-05-27T07:48:38.975Z,5259.38
2018-05-27T07:49:38.991Z,5146.88
2018-05-27T07:50:38.998Z,4989.38
2018-05-27T07:51:38.994Z,5034.38
2018-05-27T07:52:39.013Z,5118.75
2018-05-27T07:53:39.011Z,5191.88
2018-05-27T07:54:39.018Z,5242.50
2018-05-27T07:55:39.027Z,5326.88
2018-05-27T07:56:39.029Z,5495.63
2018-05-27T07:57:39.042Z,5428.13
2018-05-27T07:58:39.042Z,5175.00
2018-05-27T07:59:39.048Z,5073.75
2018-05-27T08:00:39.056Z,1018.13
2018-05-27T08:01:39.063Z,1040.63
2018-05-27T08:02:39.072Z,1406.25
2018-05-27T08:03:39.106Z,2064.38
2018-05-27T08:04:39.103Z,2683.13
2018-05-27T08:05:39.088Z,1080.00
2018-05-27T08:06:39.098Z,1080.00
2018-05-27T08:07:39.112Z,1085.63
2018-05-27T08:08:39.104Z,1091.25
2018-05-27T08:09:39.113Z,1091.25
2018-05-27T08:10:39.117Z,1085.63
2018-05-27T08:11:39.122Z,1102.50
2018-05-27T08:12:39.123Z,1068.75
2018-05-27T08:13:39.133Z,1063.13
2018-05-27T08:14:39.141Z,1091.25
2018-05-27T08:15:39.145Z,4702.50
2018-05-27T08:16:39.146Z,1085.63
2018-05-27T08:17:39.155Z,1091.25
2018-05-27T08:18:39.159Z,1108.13
2018-05-27T08:19:39.220Z,2565.00
2018-05-27T08:20:39.174Z,1147.50
2018-05-27T08:21:39.175Z,4331.25
2018-05-27T08:22:39.191Z,4573.13
2018-05-27T08:23:39.177Z,1113.75
2018-05-27T08:24:39.187Z,1833.75
2018-05-27T08:25:39.208Z,5596.88
2018-05-27T08:26:39.192Z,5473.13
2018-05-27T08:27:39.199Z,5388.75
2018-05-27T08:28:39.204Z,5675.63
2018-05-27T08:29:40.036Z,5698.13
2018-05-27T08:30:39.213Z,5619.38
2018-05-27T08:31:39.212Z,5512.50
2018-05-27T08:32:39.280Z,5501.25
2018-05-27T08:33:39.235Z,5686.88
2018-05-27T08:34:39.222Z,5737.50
2018-05-27T08:35:39.231Z,5816.25
2018-05-27T08:36:39.237Z,5681.25
2018-05-27T08:37:39.242Z,1681.88
2018-05-27T08:38:39.258Z,5124.38
2018-05-27T08:39:39.250Z,5276.25
2018-05-27T08:40:39.262Z,5551.88
2018-05-27T08:41:39.261Z,5535.00
2018-05-27T08:42:39.264Z,5287.50
2018-05-27T08:43:39.282Z,5433.75
2018-05-27T08:44:39.275Z,5664.38
2018-05-27T08:45:39.277Z,5805.00
2018-05-27T08:46:39.290Z,6030.00
2018-05-27T08:47:39.292Z,6288.75
2018-05-27T08:48:39.295Z,6300.00
2018-05-27T08:49:39.303Z,6361.88
2018-05-27T08:50:39.308Z,6170.63
2018-05-27T08:51:39.314Z,6018.75
2018-05-27T08:52:39.316Z,6103.13
2018-05-27T08:53:39.324Z,6198.75
2018-05-27T08:54:39.329Z,6390.00
2018-05-27T08:55:39.333Z,6232.50
2018-05-27T08:56:39.344Z,6316.88
2018-05-27T08:57:39.348Z,6260.63
2018-05-27T08:58:39.410Z,6013.13
2018-05-27T08:59:39.357Z,6069.38
2018-05-27T09:00:39.377Z,6249.38
2018-05-27T09:01:39.375Z,6384.38
2018-05-27T09:02:39.389Z,6502.50
2018-05-27T09:03:39.388Z,6553.13
2018-05-27T09:04:39.395Z,6716.25
2018-05-27T09:05:39.399Z,6693.75
2018-05-27T09:06:39.405Z,6570.00
2018-05-27T09:07:39.416Z,6429.38
2018-05-27T09:08:39.425Z,6356.25
2018-05-27T09:09:39.436Z,6378.75
2018-05-27T09:10:39.439Z,6586.88
2018-05-27T09:11:39.443Z,6643.13
2018-05-27T09:12:39.446Z,6485.63
2018-05-27T09:13:39.455Z,6558.75
2018-05-27T09:14:39.462Z,6665.63
2018-05-27T09:15:39.476Z,6631.88
2018-05-27T09:16:39.482Z,6558.75
2018-05-27T09:17:39.488Z,6637.50
2018-05-27T09:18:39.497Z,5743.13
2018-05-27T09:19:39.505Z,6457.50
2018-05-27T09:20:39.511Z,6457.50
2018-05-27T09:21:39.518Z,6463.13
2018-05-27T09:22:39.529Z,5979.38
2018-05-27T09:23:39.542Z,5574.38
2018-05-27T09:24:39.548Z,5973.75
2018-05-27T09:25:39.549Z,6378.75
2018-05-27T09:26:39.558Z,6451.88
2018-05-27T09:27:39.570Z,6277.50
2018-05-27T09:28:39.576Z,5709.38
2018-05-27T09:29:39.588Z,5310.00
2018-05-27T09:30:39.598Z,5135.63
2018-05-27T09:31:39.608Z,4983.75
2018-05-27T09:32:39.612Z,5023.13
2018-05-27T09:33:39.621Z,5490.00
2018-05-27T09:34:39.638Z,6046.88
2018-05-27T09:35:39.633Z,5630.63
2018-05-27T09:36:39.653Z,6131.25
2018-05-27T09:37:39.659Z,6193.13
2018-05-27T09:38:39.668Z,6446.25
2018-05-27T09:39:39.670Z,6536.25
2018-05-27T09:40:39.677Z,6525.00
2018-05-27T09:41:39.691Z,6435.00
2018-05-27T09:42:39.700Z,6181.88
2018-05-27T09:43:39.708Z,5596.88
2018-05-27T09:44:39.718Z,5349.38
2018-05-27T09:45:39.726Z,5343.75
2018-05-27T09:46:39.732Z,5506.88
2018-05-27T09:47:39.757Z,5310.00
2018-05-27T09:48:40.682Z,5833.13
2018-05-27T09:49:41.839Z,5923.13
2018-05-27T09:50:39.900Z,5400.00
2018-05-27T09:51:39.778Z,5163.75
2018-05-27T09:52:39.786Z,5045.63
2018-05-27T09:53:44.616Z,5310.00
2018-05-27T09:54:39.833Z,5242.50
2018-05-27T09:55:39.847Z,5304.38
2018-05-27T09:56:39.828Z,5445.00
2018-05-27T09:57:39.859Z,5535.00
2018-05-27T09:58:39.840Z,5040.00
2018-05-27T09:59:39.867Z,5478.75
2018-05-27T10:00:39.883Z,6030.00
2018-05-27T10:01:39.869Z,6423.75
2018-05-27T10:02:39.907Z,6046.88
2018-05-27T10:03:39.890Z,5270.63
2018-05-27T10:04:39.893Z,5535.00
2018-05-27T10:05:39.915Z,5641.88
2018-05-27T10:06:39.913Z,5754.38
2018-05-27T10:07:39.924Z,5731.88
2018-05-27T10:08:39.931Z,5911.88
2018-05-27T10:09:39.945Z,6013.13
2018-05-27T10:10:39.949Z,6277.50
2018-05-27T10:11:40.014Z,6007.50
2018-05-27T10:12:39.972Z,5771.25
2018-05-27T10:13:39.986Z,5664.38
2018-05-27T10:14:39.989Z,5551.88
2018-05-27T10:15:40.005Z,6170.63
2018-05-27T10:16:40.010Z,6339.38
2018-05-27T10:17:40.024Z,6350.63
2018-05-27T10:18:40.035Z,6688.13
2018-05-27T10:19:40.034Z,6811.88
2018-05-27T10:20:40.070Z,7014.38
2018-05-27T10:21:40.056Z,6755.63
2018-05-27T10:22:40.066Z,6390.00
2018-05-27T10:23:40.080Z,5338.13
2018-05-27T10:24:40.092Z,3847.50
2018-05-27T10:25:40.096Z,2958.75
2018-05-27T10:26:40.103Z,5220.00
2018-05-27T10:27:40.163Z,4702.50
2018-05-27T10:28:40.142Z,4876.88
2018-05-27T10:29:40.141Z,5175.00
2018-05-27T10:30:40.155Z,4528.13
2018-05-27T10:31:40.159Z,2120.63
2018-05-27T10:32:40.168Z,2655.00
2018-05-27T10:33:40.175Z,3318.75
2018-05-27T10:34:40.186Z,4798.13
2018-05-27T10:35:40.198Z,4713.75
2018-05-27T10:36:40.206Z,4893.75
2018-05-27T10:37:40.205Z,6125.63
2018-05-27T10:38:40.217Z,6536.25
2018-05-27T10:39:50.271Z,6570.00
2018-05-27T10:41:33.981Z,6378.75
2018-05-27T10:42:33.973Z,6114.38
2018-05-27T10:44:27.812Z,3825.00
2018-05-27T10:45:27.765Z,6586.88
2018-05-27T10:47:21.770Z,6626.25
2018-05-27T10:48:21.420Z,6401.25
2018-05-27T10:49:21.433Z,5917.50
2018-05-27T10:50:21.445Z,6159.38
2018-05-27T10:51:21.458Z,5709.38
2018-05-27T10:52:21.472Z,5844.38
2018-05-27T10:53:21.482Z,5681.25
2018-05-27T10:54:21.478Z,5883.75
2018-05-27T10:55:21.509Z,5889.38
2018-05-27T10:56:21.487Z,5771.25
2018-05-27T10:57:21.503Z,5670.00
2018-05-27T10:58:21.509Z,5675.63
2018-05-27T10:59:21.512Z,5675.63
2018-05-27T11:00:21.523Z,5793.75
2018-05-27T11:01:21.533Z,5765.63
2018-05-27T11:02:21.538Z,5748.75
2018-05-27T11:03:21.551Z,5737.50
2018-05-27T11:04:21.554Z,5574.38
2018-05-27T11:05:21.573Z,5619.38
2018-05-27T11:06:21.572Z,5439.38
2018-05-27T11:07:21.597Z,5647.50
2018-05-27T11:08:22.249Z,5737.50
2018-05-27T11:09:21.611Z,5675.63
2018-05-27T11:10:21.625Z,5726.25
2018-05-27T11:11:21.621Z,5731.88
2018-05-27T11:12:21.634Z,5793.75
2018-05-27T11:13:21.638Z,5596.88
2018-05-27T11:14:21.651Z,5360.63
2018-05-27T11:15:21.659Z,5220.00
2018-05-27T11:16:21.665Z,5276.25
2018-05-27T11:17:22.245Z,5107.50
2018-05-27T11:18:22.250Z,5113.13
2018-05-27T11:19:21.712Z,5304.38
2018-05-27T11:20:21.700Z,5383.13
2018-05-27T11:21:21.716Z,5439.38
2018-05-27T11:22:21.727Z,5197.50
2018-05-27T11:23:21.726Z,5377.50
2018-05-27T11:24:21.734Z,5467.50
2018-05-27T11:25:21.747Z,5574.38
2018-05-27T11:26:21.751Z,5602.50
2018-05-27T11:27:21.765Z,5101.88
2018-05-27T11:28:21.776Z,3690.00
2018-05-27T11:29:21.787Z,5186.25
2018-05-27T11:30:21.789Z,5529.38
2018-05-27T11:31:21.815Z,5596.88
2018-05-27T11:32:21.822Z,5366.25
2018-05-27T11:33:21.818Z,4736.25
2018-05-27T11:34:21.828Z,4809.38
2018-05-27T11:35:21.838Z,3864.38
2018-05-27T11:36:21.848Z,2806.88
2018-05-27T11:37:21.857Z,2626.88
2018-05-27T11:38:21.869Z,4033.13
2018-05-27T11:39:21.889Z,3476.25
2018-05-27T11:40:21.881Z,2430.00
2018-05-27T11:41:21.890Z,2165.63
2018-05-27T11:42:21.895Z,2272.50
2018-05-27T11:43:21.900Z,2221.88
2018-05-27T11:44:21.908Z,2255.63
2018-05-27T11:45:21.920Z,2233.13
2018-05-27T11:46:21.931Z,2520.00
2018-05-27T11:47:21.931Z,2812.50
2018-05-27T11:48:21.945Z,2683.13
2018-05-27T11:49:21.955Z,4145.63
2018-05-27T11:50:21.958Z,3543.75
2018-05-27T11:51:21.965Z,3780.00
2018-05-27T11:52:21.972Z,4235.63
2018-05-27T11:53:21.983Z,4449.38
2018-05-27T11:54:21.988Z,3088.13
2018-05-27T11:55:21.996Z,3155.63
2018-05-27T11:56:22.004Z,2835.00
2018-05-27T11:57:22.010Z,3971.25
2018-05-27T11:58:22.015Z,2587.50
2018-05-27T11:59:22.027Z,5281.88
2018-05-27T12:00:22.034Z,5388.75
2018-05-27T12:01:22.041Z,3386.25
2018-05-27T12:02:22.061Z,5231.25
2018-05-27T12:03:22.052Z,5186.25
2018-05-27T12:04:22.064Z,3847.50
2018-05-27T12:05:22.065Z,4905.00
2018-05-27T12:06:22.072Z,3425.63
2018-05-27T12:07:22.080Z,3003.75
2018-05-27T12:08:22.086Z,3948.75
2018-05-27T12:09:22.277Z,3555.00
2018-05-27T12:10:22.104Z,5259.38
2018-05-27T12:11:22.110Z,4781.25
2018-05-27T12:12:22.117Z,4831.88
2018-05-27T12:13:22.132Z,4258.13
2018-05-27T12:14:22.134Z,5146.88
2018-05-27T12:15:22.142Z,4831.88
2018-05-27T12:16:22.147Z,4111.88
2018-05-27T12:17:22.154Z,3504.38
2018-05-27T12:18:22.164Z,1822.50
2018-05-27T12:19:22.174Z,1704.38
2018-05-27T12:20:22.184Z,1755.00
2018-05-27T12:21:22.189Z,2025.00
2018-05-27T12:22:22.197Z,1749.38
2018-05-27T12:23:22.209Z,1906.88
2018-05-27T12:24:22.215Z,2632.50
2018-05-27T12:25:24.802Z,2340.00
2018-05-27T12:26:22.800Z,2323.13
2018-05-27T12:27:22.254Z,1603.13
2018-05-27T12:28:22.258Z,2536.88
2018-05-27T12:29:22.253Z,1805.63
2018-05-27T12:30:22.254Z,1906.88
2018-05-27T12:31:22.265Z,2216.25